sensor_id;sensor_type;location;lat;lon;timestamp;temperature;humidity
32809;DHT22;19159;48.178;16.386;2023-07-29T00:01:50;26.70;79.00
32809;DHT22;19159;48.178;16.386;2023-07-29T00:04:16;26.70;79.00
32809;DHT22;19159;48.178;16.386;2023-07-29T00:06:42;26.70;79.10
32809;DHT22;19159;48.178;16.386;2023-07-29T00:09:08;26.70;79.10
32809;DHT22;19159;48.178;16.386;2023-07-29T00:11:33;26.70;79.20
32809;DHT22;19159;48.178;16.386;2023-07-29T00:14:02;26.60;79.40
32809;DHT22;19159;48.178;16.386;2023-07-29T00:16:28;26.60;79.40
32809;DHT22;19159;48.178;16.386;2023-07-29T00:18:53;26.60;79.50
32809;DHT22;19159;48.178;16.386;2023-07-29T00:21:19;26.60;79.60
32809;DHT22;19159;48.178;16.386;2023-07-29T00:23:45;26.60;79.60
32809;DHT22;19159;48.178;16.386;2023-07-29T00:26:10;26.60;79.70
32809;DHT22;19159;48.178;16.386;2023-07-29T00:28:36;26.60;79.70
32809;DHT22;19159;48.178;16.386;2023-07-29T00:31:02;26.60;79.70
32809;DHT22;19159;48.178;16.386;2023-07-29T00:33:28;26.70;79.70
32809;DHT22;19159;48.178;16.386;2023-07-29T00:35:53;26.70;79.60
32809;DHT22;19159;48.178;16.386;2023-07-29T00:38:19;26.80;79.60
32809;DHT22;19159;48.178;16.386;2023-07-29T00:40:44;26.80;79.60
32809;DHT22;19159;48.178;16.386;2023-07-29T00:43:10;26.70;79.50
32809;DHT22;19159;48.178;16.386;2023-07-29T00:45:36;26.70;79.60
32809;DHT22;19159;48.178;16.386;2023-07-29T00:48:02;26.60;79.70
32809;DHT22;19159;48.178;16.386;2023-07-29T00:50:29;26.60;80.70
32809;DHT22;19159;48.178;16.386;2023-07-29T00:52:56;26.60;80.00
32809;DHT22;19159;48.178;16.386;2023-07-29T00:55:22;26.50;80.00
32809;DHT22;19159;48.178;16.386;2023-07-29T00:57:48;26.50;80.90
32809;DHT22;19159;48.178;16.386;2023-07-29T01:00:17;26.50;80.40
32809;DHT22;19159;48.178;16.386;2023-07-29T01:02:43;26.50;80.30
32809;DHT22;19159;48.178;16.386;2023-07-29T01:05:12;26.50;80.30
32809;DHT22;19159;48.178;16.386;2023-07-29T01:13:31;26.60;80.30
32809;DHT22;19159;48.178;16.386;2023-07-29T01:18:27;26.50;80.40
32809;DHT22;19159;48.178;16.386;2023-07-29T01:20:55;26.50;80.50
32809;DHT22;19159;48.178;16.386;2023-07-29T01:23:30;26.50;80.50
32809;DHT22;19159;48.178;16.386;2023-07-29T01:25:56;26.50;80.50
32809;DHT22;19159;48.178;16.386;2023-07-29T01:28:21;26.50;80.40
32809;DHT22;19159;48.178;16.386;2023-07-29T01:30:49;26.60;80.40
32809;DHT22;19159;48.178;16.386;2023-07-29T01:33:21;26.60;80.50
32809;DHT22;19159;48.178;16.386;2023-07-29T01:35:54;26.50;80.60
32809;DHT22;19159;48.178;16.386;2023-07-29T01:38:27;26.40;80.90
32809;DHT22;19159;48.178;16.386;2023-07-29T01:40:59;26.30;81.10
32809;DHT22;19159;48.178;16.386;2023-07-29T01:43:30;26.30;81.30
32809;DHT22;19159;48.178;16.386;2023-07-29T01:45:56;26.20;81.40
32809;DHT22;19159;48.178;16.386;2023-07-29T01:48:22;26.20;81.60
32809;DHT22;19159;48.178;16.386;2023-07-29T01:50:48;26.30;81.60
32809;DHT22;19159;48.178;16.386;2023-07-29T01:53:13;26.30;81.50
32809;DHT22;19159;48.178;16.386;2023-07-29T01:55:40;26.30;81.50
32809;DHT22;19159;48.178;16.386;2023-07-29T01:58:05;26.40;81.40
32809;DHT22;19159;48.178;16.386;2023-07-29T02:00:31;26.40;81.20
32809;DHT22;19159;48.178;16.386;2023-07-29T02:02:56;26.50;81.20
32809;DHT22;19159;48.178;16.386;2023-07-29T02:05:22;26.50;81.20
32809;DHT22;19159;48.178;16.386;2023-07-29T02:07:48;26.50;81.20
32809;DHT22;19159;48.178;16.386;2023-07-29T02:10:13;26.50;81.20
32809;DHT22;19159;48.178;16.386;2023-07-29T02:12:39;26.50;81.20
32809;DHT22;19159;48.178;16.386;2023-07-29T02:15:05;26.50;81.30
32809;DHT22;19159;48.178;16.386;2023-07-29T02:17:31;26.40;81.20
32809;DHT22;19159;48.178;16.386;2023-07-29T02:19:57;26.40;81.20
32809;DHT22;19159;48.178;16.386;2023-07-29T02:22:22;26.30;81.10
32809;DHT22;19159;48.178;16.386;2023-07-29T02:24:48;26.20;80.90
32809;DHT22;19159;48.178;16.386;2023-07-29T02:27:13;26.10;81.00
32809;DHT22;19159;48.178;16.386;2023-07-29T02:29:39;26.00;81.20
32809;DHT22;19159;48.178;16.386;2023-07-29T02:32:05;26.00;81.30
32809;DHT22;19159;48.178;16.386;2023-07-29T02:34:31;25.90;81.20
32809;DHT22;19159;48.178;16.386;2023-07-29T02:36:56;26.00;81.30
32809;DHT22;19159;48.178;16.386;2023-07-29T02:39:22;25.90;81.00
32809;DHT22;19159;48.178;16.386;2023-07-29T02:41:48;26.00;81.00
32809;DHT22;19159;48.178;16.386;2023-07-29T02:44:14;25.90;80.70
32809;DHT22;19159;48.178;16.386;2023-07-29T02:46:40;25.90;80.70
32809;DHT22;19159;48.178;16.386;2023-07-29T02:49:05;25.90;80.40
32809;DHT22;19159;48.178;16.386;2023-07-29T02:51:31;25.80;79.90
32809;DHT22;19159;48.178;16.386;2023-07-29T02:53:57;25.80;79.90
32809;DHT22;19159;48.178;16.386;2023-07-29T02:56:22;25.80;79.90
32809;DHT22;19159;48.178;16.386;2023-07-29T02:58:48;25.80;79.90
32809;DHT22;19159;48.178;16.386;2023-07-29T03:01:13;25.80;79.80
32809;DHT22;19159;48.178;16.386;2023-07-29T03:03:39;25.80;79.50
32809;DHT22;19159;48.178;16.386;2023-07-29T03:06:07;25.90;79.20
32809;DHT22;19159;48.178;16.386;2023-07-29T03:08:33;25.80;78.40
32809;DHT22;19159;48.178;16.386;2023-07-29T03:11:04;25.80;78.20
32809;DHT22;19159;48.178;16.386;2023-07-29T03:13:30;25.70;77.90
32809;DHT22;19159;48.178;16.386;2023-07-29T03:16:07;25.70;77.90
32809;DHT22;19159;48.178;16.386;2023-07-29T03:18:33;25.60;77.90
32809;DHT22;19159;48.178;16.386;2023-07-29T03:20:59;25.60;77.90
32809;DHT22;19159;48.178;16.386;2023-07-29T03:23:24;25.60;77.80
32809;DHT22;19159;48.178;16.386;2023-07-29T03:25:50;25.60;77.70
32809;DHT22;19159;48.178;16.386;2023-07-29T03:28:23;25.70;77.70
32809;DHT22;19159;48.178;16.386;2023-07-29T03:30:48;25.80;77.70
32809;DHT22;19159;48.178;16.386;2023-07-29T03:33:14;25.80;77.40
32809;DHT22;19159;48.178;16.386;2023-07-29T03:35:39;25.80;77.30
32809;DHT22;19159;48.178;16.386;2023-07-29T03:38:05;25.80;77.20
32809;DHT22;19159;48.178;16.386;2023-07-29T03:40:30;25.80;77.20
32809;DHT22;19159;48.178;16.386;2023-07-29T03:42:56;25.80;77.20
32809;DHT22;19159;48.178;16.386;2023-07-29T03:45:22;25.80;77.30
32809;DHT22;19159;48.178;16.386;2023-07-29T03:47:47;25.70;77.40
32809;DHT22;19159;48.178;16.386;2023-07-29T03:50:13;25.70;77.50
32809;DHT22;19159;48.178;16.386;2023-07-29T03:52:38;25.70;77.60
32809;DHT22;19159;48.178;16.386;2023-07-29T03:55:04;25.70;77.70
32809;DHT22;19159;48.178;16.386;2023-07-29T03:57:30;25.70;77.70
32809;DHT22;19159;48.178;16.386;2023-07-29T03:59:55;25.70;77.80
32809;DHT22;19159;48.178;16.386;2023-07-29T04:02:21;25.70;77.80
32809;DHT22;19159;48.178;16.386;2023-07-29T04:04:47;25.60;78.00
32809;DHT22;19159;48.178;16.386;2023-07-29T04:07:13;25.60;78.20
32809;DHT22;19159;48.178;16.386;2023-07-29T04:09:39;25.60;78.30
32809;DHT22;19159;48.178;16.386;2023-07-29T04:12:05;25.70;78.40
32809;DHT22;19159;48.178;16.386;2023-07-29T04:14:31;25.80;78.30
32809;DHT22;19159;48.178;16.386;2023-07-29T04:16:56;25.80;78.20
32809;DHT22;19159;48.178;16.386;2023-07-29T04:19:22;25.80;78.00
32809;DHT22;19159;48.178;16.386;2023-07-29T04:21:48;25.70;78.00
32809;DHT22;19159;48.178;16.386;2023-07-29T04:24:13;25.70;78.10
32809;DHT22;19159;48.178;16.386;2023-07-29T04:26:39;25.80;78.00
32809;DHT22;19159;48.178;16.386;2023-07-29T04:29:05;25.80;78.10
32809;DHT22;19159;48.178;16.386;2023-07-29T04:31:30;25.70;78.10
32809;DHT22;19159;48.178;16.386;2023-07-29T04:33:56;25.70;78.20
32809;DHT22;19159;48.178;16.386;2023-07-29T04:36:21;25.60;78.30
32809;DHT22;19159;48.178;16.386;2023-07-29T04:38:47;25.60;78.50
32809;DHT22;19159;48.178;16.386;2023-07-29T04:41:12;25.60;78.40
32809;DHT22;19159;48.178;16.386;2023-07-29T04:43:38;25.70;78.40
32809;DHT22;19159;48.178;16.386;2023-07-29T04:46:07;25.70;78.40
32809;DHT22;19159;48.178;16.386;2023-07-29T04:48:33;25.80;78.30
32809;DHT22;19159;48.178;16.386;2023-07-29T04:50:59;25.90;78.10
32809;DHT22;19159;48.178;16.386;2023-07-29T04:53:24;25.90;78.00
32809;DHT22;19159;48.178;16.386;2023-07-29T04:55:50;26.00;77.90
32809;DHT22;19159;48.178;16.386;2023-07-29T04:58:16;26.00;77.80
32809;DHT22;19159;48.178;16.386;2023-07-29T05:00:41;26.00;77.60
32809;DHT22;19159;48.178;16.386;2023-07-29T05:03:07;26.10;77.50
32809;DHT22;19159;48.178;16.386;2023-07-29T05:05:33;26.10;77.50
32809;DHT22;19159;48.178;16.386;2023-07-29T05:07:58;26.10;77.40
32809;DHT22;19159;48.178;16.386;2023-07-29T05:10:24;26.10;77.40
32809;DHT22;19159;48.178;16.386;2023-07-29T05:12:50;26.20;77.30
32809;DHT22;19159;48.178;16.386;2023-07-29T05:15:15;26.20;77.20
32809;DHT22;19159;48.178;16.386;2023-07-29T05:17:41;26.20;77.20
32809;DHT22;19159;48.178;16.386;2023-07-29T05:20:07;26.20;77.00
32809;DHT22;19159;48.178;16.386;2023-07-29T05:22:33;26.20;77.00
32809;DHT22;19159;48.178;16.386;2023-07-29T05:24:58;26.30;77.00
32809;DHT22;19159;48.178;16.386;2023-07-29T05:27:24;26.30;77.00
32809;DHT22;19159;48.178;16.386;2023-07-29T05:29:49;26.30;77.10
32809;DHT22;19159;48.178;16.386;2023-07-29T05:32:15;26.30;77.20
32809;DHT22;19159;48.178;16.386;2023-07-29T05:34:41;26.20;77.30
32809;DHT22;19159;48.178;16.386;2023-07-29T05:37:06;26.30;77.60
32809;DHT22;19159;48.178;16.386;2023-07-29T05:39:32;26.30;77.50
32809;DHT22;19159;48.178;16.386;2023-07-29T05:41:58;26.20;77.70
32809;DHT22;19159;48.178;16.386;2023-07-29T05:44:24;26.20;77.70
32809;DHT22;19159;48.178;16.386;2023-07-29T05:46:49;26.30;77.70
32809;DHT22;19159;48.178;16.386;2023-07-29T05:49:15;26.40;77.80
32809;DHT22;19159;48.178;16.386;2023-07-29T05:51:41;26.40;77.80
32809;DHT22;19159;48.178;16.386;2023-07-29T05:54:06;26.30;77.70
32809;DHT22;19159;48.178;16.386;2023-07-29T05:56:32;26.40;77.90
32809;DHT22;19159;48.178;16.386;2023-07-29T05:58:57;26.50;78.00
32809;DHT22;19159;48.178;16.386;2023-07-29T06:01:23;26.50;77.80
32809;DHT22;19159;48.178;16.386;2023-07-29T06:03:48;26.60;77.70
32809;DHT22;19159;48.178;16.386;2023-07-29T06:06:14;26.60;77.70
32809;DHT22;19159;48.178;16.386;2023-07-29T06:08:40;26.50;77.70
32809;DHT22;19159;48.178;16.386;2023-07-29T06:13:33;26.60;77.90
32809;DHT22;19159;48.178;16.386;2023-07-29T06:15:59;26.60;77.80
32809;DHT22;19159;48.178;16.386;2023-07-29T06:18:24;26.50;77.80
32809;DHT22;19159;48.178;16.386;2023-07-29T06:20:51;26.60;78.00
32809;DHT22;19159;48.178;16.386;2023-07-29T06:23:16;26.60;78.00
32809;DHT22;19159;48.178;16.386;2023-07-29T06:25:42;26.60;78.00
32809;DHT22;19159;48.178;16.386;2023-07-29T06:28:09;26.60;77.80
32809;DHT22;19159;48.178;16.386;2023-07-29T06:30:36;26.50;78.00
32809;DHT22;19159;48.178;16.386;2023-07-29T06:33:02;26.50;78.20
32809;DHT22;19159;48.178;16.386;2023-07-29T06:35:28;26.60;78.30
32809;DHT22;19159;48.178;16.386;2023-07-29T06:37:54;26.70;78.20
32809;DHT22;19159;48.178;16.386;2023-07-29T06:40:20;26.70;78.00
32809;DHT22;19159;48.178;16.386;2023-07-29T06:42:45;26.60;77.90
32809;DHT22;19159;48.178;16.386;2023-07-29T06:45:11;26.60;78.00
32809;DHT22;19159;48.178;16.386;2023-07-29T06:47:37;26.60;77.90
32809;DHT22;19159;48.178;16.386;2023-07-29T06:50:03;26.60;78.00
32809;DHT22;19159;48.178;16.386;2023-07-29T06:52:29;26.80;78.20
32809;DHT22;19159;48.178;16.386;2023-07-29T06:54:54;26.90;78.00
32809;DHT22;19159;48.178;16.386;2023-07-29T06:57:20;26.90;77.50
32809;DHT22;19159;48.178;16.386;2023-07-29T06:59:46;27.00;77.70
32809;DHT22;19159;48.178;16.386;2023-07-29T07:02:11;27.10;77.70
32809;DHT22;19159;48.178;16.386;2023-07-29T07:04:37;27.10;77.40
32809;DHT22;19159;48.178;16.386;2023-07-29T07:07:03;27.20;77.40
32809;DHT22;19159;48.178;16.386;2023-07-29T07:09:28;27.30;77.30
32809;DHT22;19159;48.178;16.386;2023-07-29T07:11:54;27.30;76.60
32809;DHT22;19159;48.178;16.386;2023-07-29T07:14:19;27.30;76.70
32809;DHT22;19159;48.178;16.386;2023-07-29T07:16:45;27.40;76.70
32809;DHT22;19159;48.178;16.386;2023-07-29T07:19:11;27.40;76.60
32809;DHT22;19159;48.178;16.386;2023-07-29T07:21:36;27.50;76.80
32809;DHT22;19159;48.178;16.386;2023-07-29T07:24:02;27.60;76.60
32809;DHT22;19159;48.178;16.386;2023-07-29T07:26:27;27.70;76.40
32809;DHT22;19159;48.178;16.386;2023-07-29T07:28:53;27.70;76.10
32809;DHT22;19159;48.178;16.386;2023-07-29T07:31:19;27.70;76.20
32809;DHT22;19159;48.178;16.386;2023-07-29T07:33:45;27.80;76.50
32809;DHT22;19159;48.178;16.386;2023-07-29T07:36:10;27.80;76.10
32809;DHT22;19159;48.178;16.386;2023-07-29T07:38:36;27.90;76.30
32809;DHT22;19159;48.178;16.386;2023-07-29T07:41:02;28.00;75.30
32809;DHT22;19159;48.178;16.386;2023-07-29T07:43:27;28.10;75.50
32809;DHT22;19159;48.178;16.386;2023-07-29T07:46:00;28.30;75.60
32809;DHT22;19159;48.178;16.386;2023-07-29T07:48:27;28.50;75.40
32809;DHT22;19159;48.178;16.386;2023-07-29T07:50:53;28.70;74.90
32809;DHT22;19159;48.178;16.386;2023-07-29T07:53:18;28.80;75.00
32809;DHT22;19159;48.178;16.386;2023-07-29T07:55:45;29.00;74.40
32809;DHT22;19159;48.178;16.386;2023-07-29T07:58:11;29.20;74.40
32809;DHT22;19159;48.178;16.386;2023-07-29T08:00:36;29.50;74.10
32809;DHT22;19159;48.178;16.386;2023-07-29T08:03:02;29.90;73.80
32809;DHT22;19159;48.178;16.386;2023-07-29T08:05:27;30.40;72.80
32809;DHT22;19159;48.178;16.386;2023-07-29T08:07:53;30.70;71.10
32809;DHT22;19159;48.178;16.386;2023-07-29T08:10:19;31.10;70.60
32809;DHT22;19159;48.178;16.386;2023-07-29T08:12:44;31.50;70.20
32809;DHT22;19159;48.178;16.386;2023-07-29T08:15:10;31.70;68.20
32809;DHT22;19159;48.178;16.386;2023-07-29T08:17:35;31.90;67.70
32809;DHT22;19159;48.178;16.386;2023-07-29T08:20:01;32.00;66.70
32809;DHT22;19159;48.178;16.386;2023-07-29T08:22:27;32.20;66.10
32809;DHT22;19159;48.178;16.386;2023-07-29T08:24:52;32.20;65.30
32809;DHT22;19159;48.178;16.386;2023-07-29T08:27:18;32.20;65.10
32809;DHT22;19159;48.178;16.386;2023-07-29T08:29:43;32.20;65.70
32809;DHT22;19159;48.178;16.386;2023-07-29T08:32:09;32.10;65.40
32809;DHT22;19159;48.178;16.386;2023-07-29T08:34:34;32.00;65.50
32809;DHT22;19159;48.178;16.386;2023-07-29T08:37:00;31.90;64.70
32809;DHT22;19159;48.178;16.386;2023-07-29T08:39:25;31.80;65.30
32809;DHT22;19159;48.178;16.386;2023-07-29T08:42:04;31.70;64.70
32809;DHT22;19159;48.178;16.386;2023-07-29T08:44:43;31.60;64.80
32809;DHT22;19159;48.178;16.386;2023-07-29T08:47:09;31.60;65.10
32809;DHT22;19159;48.178;16.386;2023-07-29T08:49:36;31.70;65.50
32809;DHT22;19159;48.178;16.386;2023-07-29T08:52:02;31.80;64.80
32809;DHT22;19159;48.178;16.386;2023-07-29T08:54:29;31.70;64.70
32809;DHT22;19159;48.178;16.386;2023-07-29T08:56:55;31.60;64.30
32809;DHT22;19159;48.178;16.386;2023-07-29T08:59:20;31.40;64.20
32809;DHT22;19159;48.178;16.386;2023-07-29T09:01:47;31.40;65.70
32809;DHT22;19159;48.178;16.386;2023-07-29T09:04:15;31.40;65.50
32809;DHT22;19159;48.178;16.386;2023-07-29T09:06:43;31.20;64.90
32809;DHT22;19159;48.178;16.386;2023-07-29T09:09:10;31.10;65.50
32809;DHT22;19159;48.178;16.386;2023-07-29T09:11:35;31.10;66.00
32809;DHT22;19159;48.178;16.386;2023-07-29T09:14:01;31.20;66.30
32809;DHT22;19159;48.178;16.386;2023-07-29T09:16:27;31.40;66.50
32809;DHT22;19159;48.178;16.386;2023-07-29T09:18:52;31.50;66.20
32809;DHT22;19159;48.178;16.386;2023-07-29T09:21:23;31.60;66.50
32809;DHT22;19159;48.178;16.386;2023-07-29T09:23:51;31.70;66.30
32809;DHT22;19159;48.178;16.386;2023-07-29T09:26:26;31.70;65.60
32809;DHT22;19159;48.178;16.386;2023-07-29T09:28:56;31.70;65.50
32809;DHT22;19159;48.178;16.386;2023-07-29T09:31:24;31.80;65.50
32809;DHT22;19159;48.178;16.386;2023-07-29T09:33:55;31.90;65.80
32809;DHT22;19159;48.178;16.386;2023-07-29T09:36:21;31.90;65.30
32809;DHT22;19159;48.178;16.386;2023-07-29T09:38:47;32.00;65.70
32809;DHT22;19159;48.178;16.386;2023-07-29T09:41:13;32.10;65.60
32809;DHT22;19159;48.178;16.386;2023-07-29T09:43:40;32.30;65.20
32809;DHT22;19159;48.178;16.386;2023-07-29T09:46:06;32.40;64.40
32809;DHT22;19159;48.178;16.386;2023-07-29T09:48:36;32.50;64.20
32809;DHT22;19159;48.178;16.386;2023-07-29T09:51:15;32.50;63.70
32809;DHT22;19159;48.178;16.386;2023-07-29T09:53:46;32.50;62.80
32809;DHT22;19159;48.178;16.386;2023-07-29T09:56:13;32.40;62.00
32809;DHT22;19159;48.178;16.386;2023-07-29T09:58:39;32.40;62.80
32809;DHT22;19159;48.178;16.386;2023-07-29T10:01:06;32.50;63.00
32809;DHT22;19159;48.178;16.386;2023-07-29T10:03:34;32.60;63.00
32809;DHT22;19159;48.178;16.386;2023-07-29T10:06:04;32.70;63.00
32809;DHT22;19159;48.178;16.386;2023-07-29T10:08:31;32.90;62.70
32809;DHT22;19159;48.178;16.386;2023-07-29T10:11:07;33.00;62.20
32809;DHT22;19159;48.178;16.386;2023-07-29T10:13:33;33.20;61.80
32809;DHT22;19159;48.178;16.386;2023-07-29T10:15:59;33.20;61.30
32809;DHT22;19159;48.178;16.386;2023-07-29T10:18:28;33.30;61.80
32809;DHT22;19159;48.178;16.386;2023-07-29T10:20:57;33.30;61.30
32809;DHT22;19159;48.178;16.386;2023-07-29T10:23:25;33.40;60.60
32809;DHT22;19159;48.178;16.386;2023-07-29T10:26:02;33.40;60.00
32809;DHT22;19159;48.178;16.386;2023-07-29T10:28:30;33.30;59.50
32809;DHT22;19159;48.178;16.386;2023-07-29T10:30:57;33.40;60.10
32809;DHT22;19159;48.178;16.386;2023-07-29T10:33:23;33.50;60.40
32809;DHT22;19159;48.178;16.386;2023-07-29T10:35:49;33.60;60.10
32809;DHT22;19159;48.178;16.386;2023-07-29T10:38:16;33.60;58.90
32809;DHT22;19159;48.178;16.386;2023-07-29T10:40:51;33.60;59.50
32809;DHT22;19159;48.178;16.386;2023-07-29T10:43:25;33.60;59.50
32809;DHT22;19159;48.178;16.386;2023-07-29T10:45:51;33.60;58.70
32809;DHT22;19159;48.178;16.386;2023-07-29T10:54:01;33.90;57.90
32809;DHT22;19159;48.178;16.386;2023-07-29T10:56:34;33.90;57.70
32809;DHT22;19159;48.178;16.386;2023-07-29T11:01:43;33.90;57.10
32809;DHT22;19159;48.178;16.386;2023-07-29T11:15:26;34.40;57.10
32809;DHT22;19159;48.178;16.386;2023-07-29T11:18:01;34.60;57.30
32809;DHT22;19159;48.178;16.386;2023-07-29T11:20:32;34.60;56.60
32809;DHT22;19159;48.178;16.386;2023-07-29T11:23:02;34.60;56.50
32809;DHT22;19159;48.178;16.386;2023-07-29T11:25:29;34.60;56.50
32809;DHT22;19159;48.178;16.386;2023-07-29T11:27:56;34.60;56.20
32809;DHT22;19159;48.178;16.386;2023-07-29T11:30:23;34.60;57.00
32809;DHT22;19159;48.178;16.386;2023-07-29T11:32:50;34.50;58.00
32809;DHT22;19159;48.178;16.386;2023-07-29T11:35:17;34.40;57.70
32809;DHT22;19159;48.178;16.386;2023-07-29T11:37:48;34.30;57.70
32809;DHT22;19159;48.178;16.386;2023-07-29T11:40:19;34.30;57.80
32809;DHT22;19159;48.178;16.386;2023-07-29T11:42:46;34.20;57.90
32809;DHT22;19159;48.178;16.386;2023-07-29T11:45:13;34.30;58.10
32809;DHT22;19159;48.178;16.386;2023-07-29T11:47:39;34.40;58.20
32809;DHT22;19159;48.178;16.386;2023-07-29T11:50:06;34.50;58.10
32809;DHT22;19159;48.178;16.386;2023-07-29T11:52:36;34.60;57.90
32809;DHT22;19159;48.178;16.386;2023-07-29T11:55:03;34.60;57.50
32809;DHT22;19159;48.178;16.386;2023-07-29T11:57:30;34.50;57.40
32809;DHT22;19159;48.178;16.386;2023-07-29T11:59:56;34.40;57.40
32809;DHT22;19159;48.178;16.386;2023-07-29T12:02:23;34.30;57.80
32809;DHT22;19159;48.178;16.386;2023-07-29T12:04:49;34.20;58.00
32809;DHT22;19159;48.178;16.386;2023-07-29T12:07:17;34.20;58.30
32809;DHT22;19159;48.178;16.386;2023-07-29T12:09:43;34.10;58.00
32809;DHT22;19159;48.178;16.386;2023-07-29T12:12:09;34.10;58.00
32809;DHT22;19159;48.178;16.386;2023-07-29T12:14:34;34.00;57.90
32809;DHT22;19159;48.178;16.386;2023-07-29T12:17:02;33.90;57.70
32809;DHT22;19159;48.178;16.386;2023-07-29T12:19:38;33.90;57.90
32809;DHT22;19159;48.178;16.386;2023-07-29T12:22:06;33.90;58.20
32809;DHT22;19159;48.178;16.386;2023-07-29T12:24:34;34.00;58.00
32809;DHT22;19159;48.178;16.386;2023-07-29T12:27:01;33.90;57.00
32809;DHT22;19159;48.178;16.386;2023-07-29T12:29:27;33.80;56.90
32809;DHT22;19159;48.178;16.386;2023-07-29T12:32:03;33.70;56.90
32809;DHT22;19159;48.178;16.386;2023-07-29T12:34:30;33.60;58.00
32809;DHT22;19159;48.178;16.386;2023-07-29T12:36:57;33.70;58.30
32809;DHT22;19159;48.178;16.386;2023-07-29T12:39:28;33.60;58.40
32809;DHT22;19159;48.178;16.386;2023-07-29T12:41:55;33.60;57.60
32809;DHT22;19159;48.178;16.386;2023-07-29T12:44:35;33.60;57.70
32809;DHT22;19159;48.178;16.386;2023-07-29T12:47:02;33.40;58.10
32809;DHT22;19159;48.178;16.386;2023-07-29T12:49:29;33.40;58.20
32809;DHT22;19159;48.178;16.386;2023-07-29T12:51:56;33.50;59.00
32809;DHT22;19159;48.178;16.386;2023-07-29T12:54:21;33.60;58.40
32809;DHT22;19159;48.178;16.386;2023-07-29T12:56:47;33.60;58.40
32809;DHT22;19159;48.178;16.386;2023-07-29T12:59:13;33.60;57.70
32809;DHT22;19159;48.178;16.386;2023-07-29T13:01:38;33.40;57.60
32809;DHT22;19159;48.178;16.386;2023-07-29T13:04:04;33.30;57.30
32809;DHT22;19159;48.178;16.386;2023-07-29T13:06:33;33.20;57.20
32809;DHT22;19159;48.178;16.386;2023-07-29T13:08:58;33.30;57.30
32809;DHT22;19159;48.178;16.386;2023-07-29T13:11:24;33.20;56.90
32809;DHT22;19159;48.178;16.386;2023-07-29T13:13:50;33.30;57.50
32809;DHT22;19159;48.178;16.386;2023-07-29T13:16:15;33.30;57.00
32809;DHT22;19159;48.178;16.386;2023-07-29T13:18:43;33.40;56.30
32809;DHT22;19159;48.178;16.386;2023-07-29T13:21:09;33.40;54.10
32809;DHT22;19159;48.178;16.386;2023-07-29T13:23:34;33.10;54.30
32809;DHT22;19159;48.178;16.386;2023-07-29T13:26:00;33.00;54.80
32809;DHT22;19159;48.178;16.386;2023-07-29T13:28:25;32.70;54.40
32809;DHT22;19159;48.178;16.386;2023-07-29T13:30:51;32.60;55.30
32809;DHT22;19159;48.178;16.386;2023-07-29T13:33:17;32.40;56.00
32809;DHT22;19159;48.178;16.386;2023-07-29T13:35:42;32.40;56.50
32809;DHT22;19159;48.178;16.386;2023-07-29T13:38:08;32.40;56.90
32809;DHT22;19159;48.178;16.386;2023-07-29T13:40:34;32.50;57.10
32809;DHT22;19159;48.178;16.386;2023-07-29T13:43:00;32.40;57.40
32809;DHT22;19159;48.178;16.386;2023-07-29T13:45:26;32.40;58.40
32809;DHT22;19159;48.178;16.386;2023-07-29T13:47:51;32.40;57.60
32809;DHT22;19159;48.178;16.386;2023-07-29T13:50:17;32.40;57.60
32809;DHT22;19159;48.178;16.386;2023-07-29T13:52:43;32.50;57.60
32809;DHT22;19159;48.178;16.386;2023-07-29T13:55:09;32.50;58.10
32809;DHT22;19159;48.178;16.386;2023-07-29T13:57:35;32.50;57.70
32809;DHT22;19159;48.178;16.386;2023-07-29T14:00:01;32.50;57.70
32809;DHT22;19159;48.178;16.386;2023-07-29T14:02:27;32.60;57.90
32809;DHT22;19159;48.178;16.386;2023-07-29T14:04:53;32.60;58.00
32809;DHT22;19159;48.178;16.386;2023-07-29T14:07:18;32.70;58.10
32809;DHT22;19159;48.178;16.386;2023-07-29T14:09:44;32.60;58.30
32809;DHT22;19159;48.178;16.386;2023-07-29T14:12:10;32.60;58.60
32809;DHT22;19159;48.178;16.386;2023-07-29T14:14:38;32.60;58.80
32809;DHT22;19159;48.178;16.386;2023-07-29T14:17:04;32.60;59.10
32809;DHT22;19159;48.178;16.386;2023-07-29T14:19:30;32.60;59.30
32809;DHT22;19159;48.178;16.386;2023-07-29T14:21:56;32.50;59.20
32809;DHT22;19159;48.178;16.386;2023-07-29T14:24:22;32.60;59.50
32809;DHT22;19159;48.178;16.386;2023-07-29T14:26:48;32.60;59.30
32809;DHT22;19159;48.178;16.386;2023-07-29T14:29:13;32.50;58.90
32809;DHT22;19159;48.178;16.386;2023-07-29T14:31:39;32.50;59.00
32809;DHT22;19159;48.178;16.386;2023-07-29T14:34:05;32.60;58.90
32809;DHT22;19159;48.178;16.386;2023-07-29T14:36:30;32.60;58.70
32809;DHT22;19159;48.178;16.386;2023-07-29T14:38:56;32.70;58.70
32809;DHT22;19159;48.178;16.386;2023-07-29T14:41:21;32.80;58.30
32809;DHT22;19159;48.178;16.386;2023-07-29T14:43:47;32.80;58.30
32809;DHT22;19159;48.178;16.386;2023-07-29T14:46:12;32.80;58.30
32809;DHT22;19159;48.178;16.386;2023-07-29T14:48:38;32.80;58.30
32809;DHT22;19159;48.178;16.386;2023-07-29T14:51:04;32.70;58.20
32809;DHT22;19159;48.178;16.386;2023-07-29T14:53:29;32.70;58.20
32809;DHT22;19159;48.178;16.386;2023-07-29T14:55:55;32.70;58.30
32809;DHT22;19159;48.178;16.386;2023-07-29T14:58:20;32.80;58.40
32809;DHT22;19159;48.178;16.386;2023-07-29T15:00:46;32.80;58.40
32809;DHT22;19159;48.178;16.386;2023-07-29T15:03:11;32.80;58.30
32809;DHT22;19159;48.178;16.386;2023-07-29T15:05:37;32.80;58.30
32809;DHT22;19159;48.178;16.386;2023-07-29T15:08:03;32.80;58.30
32809;DHT22;19159;48.178;16.386;2023-07-29T15:10:28;32.70;58.40
32809;DHT22;19159;48.178;16.386;2023-07-29T15:12:54;32.60;57.90
32809;DHT22;19159;48.178;16.386;2023-07-29T15:15:20;32.40;58.20
32809;DHT22;19159;48.178;16.386;2023-07-29T15:17:45;32.40;58.40
32809;DHT22;19159;48.178;16.386;2023-07-29T15:20:11;32.30;58.50
32809;DHT22;19159;48.178;16.386;2023-07-29T15:22:37;32.00;58.60
32809;DHT22;19159;48.178;16.386;2023-07-29T15:25:04;31.90;58.90
32809;DHT22;19159;48.178;16.386;2023-07-29T15:27:30;31.90;59.50
32809;DHT22;19159;48.178;16.386;2023-07-29T15:29:56;31.80;59.50
32809;DHT22;19159;48.178;16.386;2023-07-29T15:32:22;31.80;60.00
32809;DHT22;19159;48.178;16.386;2023-07-29T15:34:48;31.70;60.20
32809;DHT22;19159;48.178;16.386;2023-07-29T15:37:14;31.70;60.60
32809;DHT22;19159;48.178;16.386;2023-07-29T15:39:40;31.60;61.00
32809;DHT22;19159;48.178;16.386;2023-07-29T15:42:06;31.50;61.50